Data for 03/31/2018

Time Sea-Level Adjusted Pressure Absolute Pressure Temperature Relative Humidity Dew Point   
(mb) (inHg) (mb) (inHg) (C) (F) (%) (C) (F)
00:05 1019 30.09 848 25.04 -4.6 23.8 70 -9.3 15.3
00:10 1019 30.09 848 25.04 -4.6 23.7 71 -9.1 15.6
00:15 1019 30.09 848 25.04 -4.6 23.7 71 -9 15.7
00:20 1019 30.09 848 25.04 -4.6 23.7 72 -9 15.9
00:25 1019 30.09 849 25.07 -4.5 23.9 71 -9 15.9
00:30 1020 30.12 849 25.07 -4.4 24 71 -9 15.8
00:35 1020 30.12 849 25.07 -4.4 24.1 70 -9 15.8
00:40 1020 30.12 849 25.07 -4.5 24 71 -8.9 15.9
00:45 1020 30.12 849 25.07 -4.6 23.7 71 -9.1 15.6
00:50 1020 30.12 849 25.07 -5 23 72 -9.2 15.4
00:55 1020 30.12 849 25.07 -5.2 22.6 72 -9.5 14.9
01:00 1020 30.12 849 25.07 -5.5 22.2 72 -9.8 14.4
01:05 1020 30.12 849 25.07 -5.8 21.5 71 -10.2 13.6
01:10 1020 30.12 849 25.07 -6 21.2 70 -10.6 12.8
01:15 1020 30.12 849 25.07 -6.2 20.8 69 -10.9 12.4
01:20 1020 30.12 849 25.07 -6.1 21 69 -10.9 12.4
01:25 1020 30.12 849 25.07 -6.2 20.8 70 -10.8 12.6
01:30 1020 30.12 849 25.07 -6.2 20.8 70 -10.8 12.6
01:35 1020 30.12 850 25.1 -6.2 20.8 72 -10.5 13.1
01:40 1020 30.12 850 25.1 -6.3 20.7 73 -10.3 13.5
01:45 1021 30.15 850 25.1 -6.4 20.4 74 -10.4 13.3
01:50 1021 30.15 850 25.1 -6.6 20.2 73 -10.6 12.9
01:55 1021 30.15 850 25.1 -6.5 20.2 73 -10.6 13
02:00 1021 30.15 850 25.1 -6.6 20.2 73 -10.7 12.8
02:05 1021 30.15 850 25.1 -6.6 20.2 73 -10.6 13
02:10 1021 30.15 850 25.1 -6.5 20.2 75 -10.4 13.4
02:15 1021 30.15 850 25.1 -6.5 20.2 76 -10.2 13.7
02:20 1021 30.15 850 25.1 -6.5 20.3 77 -9.9 14.2
02:25 1021 30.15 850 25.1 -6.8 19.8 78 -9.9 14.1
02:30 1021 30.15 850 25.1 -7 19.4 80 -9.9 14.3
02:35 1021 30.15 850 25.1 -6.9 19.6 81 -9.7 14.5
02:40 1021 30.15 850 25.1 -7 19.5 81 -9.7 14.5
02:45 1021 30.15 850 25.1 -7 19.4 82 -9.6 14.7
02:50 1021 30.15 850 25.1 -6.9 19.5 82 -9.6 14.8
02:55 1021 30.15 850 25.1 -6.9 19.5 82 -9.5 14.8
03:00 1021 30.15 850 25.1 -7 19.5 82 -9.6 14.8
03:05 1021 30.15 850 25.1 -6.9 19.5 81 -9.6 14.7
03:10 1021 30.15 850 25.1 -6.9 19.6 80 -9.7 14.5
03:15 1021 30.15 850 25.1 -6.9 19.5 81 -9.6 14.7
03:20 1021 30.15 850 25.1 -6.9 19.5 81 -9.7 14.5
03:25 1021 30.15 850 25.1 -7 19.4 81 -9.7 14.6
03:30 1021 30.15 850 25.1 -6.9 19.5 81 -9.7 14.6
03:35 1021 30.15 850 25.1 -7 19.3 80 -9.9 14.2
03:40 1021 30.15 850 25.1 -7.4 18.7 77 -10.7 12.7
03:45 1021 30.15 850 25.1 -7.7 18.1 77 -11 12.1
03:50 1021 30.15 850 25.1 -7.8 17.9 78 -11 12.2
03:55 1021 30.15 850 25.1 -7.9 17.7 77 -11.3 11.7
04:00 1021 30.15 850 25.1 -8.1 17.4 77 -11.4 11.4
04:05 1021 30.15 850 25.1 -8.1 17.5 79 -11.2 11.9
04:10 1021 30.15 850 25.1 -7.9 17.7 80 -10.8 12.6
04:15 1021 30.15 850 25.1 -7.9 17.8 80 -10.7 12.7
04:20 1021 30.15 850 25.1 -8.2 17.2 82 -10.8 12.6
04:25 1021 30.15 850 25.1 -8.2 17.2 83 -10.7 12.8
04:30 1021 30.15 850 25.1 -8 17.6 81 -10.6 12.8
04:35 1021 30.15 850 25.1 -8 17.5 81 -10.7 12.7
04:40 1021 30.15 850 25.1 -8.1 17.4 77 -11.4 11.4
04:45 1021 30.15 850 25.1 -8.3 17.1 76 -11.9 10.7
04:50 1021 30.15 850 25.1 -8.5 16.6 76 -12.1 10.2
04:55 1021 30.15 851 25.13 -8.6 16.6 78 -11.8 10.8
05:00 1021 30.15 851 25.13 -8.5 16.7 77 -11.8 10.7
05:05 1021 30.15 851 25.13 -8.7 16.3 77 -12.1 10.3
05:10 1021 30.15 851 25.13 -8.8 16.2 76 -12.3 9.8
05:15 1021 30.15 851 25.13 -8.8 16.2 75 -12.4 9.7
05:20 1022 30.18 851 25.13 -8.9 16 75 -12.6 9.4
05:25 1022 30.18 851 25.13 -8.9 15.9 75 -12.6 9.3
05:30 1022 30.18 851 25.13 -8.9 16.1 74 -12.6 9.3
05:35 1022 30.18 851 25.13 -8.8 16.2 72 -12.9 8.7
05:40 1022 30.18 851 25.13 -8.9 16.1 74 -12.7 9.1
05:45 1022 30.18 851 25.13 -8.8 16.1 71 -13.1 8.3
05:50 1022 30.18 851 25.13 -8.9 16 71 -13.3 8
05:55 1022 30.18 851 25.13 -9 15.9 70 -13.6 7.6
06:00 1022 30.18 851 25.13 -9 15.7 70 -13.6 7.6
06:05 1022 30.18 851 25.13 -9 15.7 70 -13.5 7.7
06:10 1022 30.18 851 25.13 -9 15.7 70 -13.5 7.7
06:15 1022 30.18 851 25.13 -9 15.9 70 -13.4 7.8
06:20 1022 30.18 852 25.16 -9 15.9 71 -13.4 7.9
06:25 1022 30.18 852 25.16 -9.1 15.7 71 -13.4 7.8
06:30 1022 30.18 852 25.16 -9.1 15.5 72 -13.2 8.2
06:35 1022 30.18 852 25.16 -9.2 15.4 73 -13.2 8.3
06:40 1023 30.21 852 25.16 -9.4 15.1 75 -13.1 8.5
06:45 1023 30.21 852 25.16 -9.5 14.9 77 -12.9 8.8
06:50 1023 30.21 852 25.16 -9.5 14.9 77 -12.8 9
06:55 1023 30.21 852 25.16 -9.7 14.5 78 -12.9 8.8
07:00 1023 30.21 852 25.16 -10 14.1 79 -12.9 8.7
07:05 1023 30.21 852 25.16 -10.1 13.8 80 -13 8.6
07:10 1023 30.21 852 25.16 -10.3 13.6 81 -12.8 8.9
07:15 1023 30.21 852 25.16 -10.3 13.5 81 -13 8.6
07:20 1023 30.21 852 25.16 -10.4 13.2 81 -13.1 8.3
07:25 1023 30.21 852 25.16 -10.5 13 81 -13.2 8.2
07:30 1023 30.21 852 25.16 -10.6 12.9 82 -13.1 8.4
07:35 1023 30.21 852 25.16 -10.5 13.1 81 -13.1 8.4
07:40 1023 30.21 852 25.16 -10.6 13 81 -13.2 8.2
07:45 1023 30.21 852 25.16 -10.6 12.9 81 -13.3 8
07:50 1023 30.21 852 25.16 -10.6 12.9 80 -13.4 7.9
07:55 1023 30.21 852 25.16 -10.6 12.9 80 -13.5 7.8
08:00 1023 30.21 852 25.16 -10.7 12.8 79 -13.7 7.3
08:05 1023 30.21 852 25.16 -10.7 12.8 79 -13.7 7.4
08:10 1023 30.21 852 25.16 -10.6 12.9 79 -13.6 7.5
08:15 1023 30.21 852 25.16 -10.6 12.9 78 -13.7 7.3
08:20 1023 30.21 852 25.16 -10.7 12.7 79 -13.7 7.4
08:25 1023 30.21 852 25.16 -10.8 12.6 79 -13.8 7.2
08:30 1023 30.21 853 25.19 -10.9 12.4 78 -14 6.9
08:35 1023 30.21 853 25.19 -11 12.3 78 -14.1 6.6
08:40 1023 30.21 852 25.16 -11.2 11.9 78 -14.3 6.2
08:45 1023 30.21 852 25.16 -11.2 11.9 78 -14.3 6.3
08:50 1023 30.21 853 25.19 -11.2 11.9 78 -14.4 6.2
08:55 1023 30.21 853 25.19 -11.1 12.1 77 -14.4 6.1
09:00 1023 30.21 853 25.19 -11.1 12 76 -14.6 5.7
09:05 1023 30.21 853 25.19 -11.2 11.9 76 -14.7 5.6
09:10 1023 30.21 853 25.19 -11.2 11.8 75 -14.8 5.3
09:15 1024 30.24 853 25.19 -11.3 11.8 73 -15.1 4.7
09:20 1024 30.24 853 25.19 -11.5 11.3 75 -15.1 4.8
09:25 1023 30.21 853 25.19 -11.6 11.1 74 -15.4 4.2
09:30 1024 30.24 853 25.19 -11.7 11 73 -15.6 3.9
09:35 1024 30.24 853 25.19 -11.4 11.5 71 -15.6 3.9
09:40 1024 30.24 853 25.19 -11.4 11.4 71 -15.6 3.9
09:45 1023 30.21 853 25.19 -11.4 11.6 70 -15.7 3.7
09:50 1023 30.21 853 25.19 -11.1 12 69 -15.7 3.8
09:55 1023 30.21 853 25.19 -10.9 12.3 67 -15.9 3.3
10:00 1023 30.21 853 25.19 -11.1 12 66 -16.3 2.6
10:05 1023 30.21 853 25.19 -10.6 12.9 64 -16.3 2.7
10:10 1023 30.21 853 25.19 -10.3 13.4 62 -16.2 2.8
10:15 1023 30.21 853 25.19 -10.2 13.7 61 -16.3 2.7
10:20 1023 30.21 853 25.19 -10.4 13.3 61 -16.5 2.3
10:25 1023 30.21 853 25.19 -10.1 13.9 60 -16.4 2.5
10:30 1023 30.21 853 25.19 -10.4 13.3 62 -16.4 2.4
10:35 1023 30.21 853 25.19 -10.3 13.4 62 -16.4 2.5
10:40 1023 30.21 853 25.19 -10.2 13.7 61 -16.4 2.4
10:45 1023 30.21 853 25.19 -10.1 13.9 59 -16.6 2.1
10:50 1023 30.21 853 25.19 -10 14 60 -16.5 2.4
10:55 1023 30.21 853 25.19 -9.5 14.8 58 -16.3 2.7
11:00 1023 30.21 853 25.19 -9.5 14.8 59 -16.2 2.8
11:05 1024 30.24 853 25.19 -9.7 14.6 62 -15.7 3.7
11:10 1024 30.24 853 25.19 -9.5 14.9 58 -16.2 2.8
11:15 1024 30.24 853 25.19 -9.8 14.5 60 -16.2 2.9
11:20 1024 30.24 853 25.19 -9.4 15 60 -15.9 3.4
11:25 1024 30.24 853 25.19 -9.3 15.3 61 -15.5 4.1
11:30 1024 30.24 853 25.19 -9.3 15.2 62 -15.3 4.4
11:35 1024 30.24 853 25.19 -9.2 15.4 59 -15.8 3.6
11:40 1024 30.24 853 25.19 -9.2 15.4 61 -15.5 4.1
11:45 1024 30.24 853 25.19 -9.3 15.4 60 -15.7 3.8
11:50 1024 30.24 853 25.19 -9.5 15 63 -15.3 4.5
11:55 1024 30.24 853 25.19 -9 15.8 60 -15.4 4.4
12:00 1024 30.24 853 25.19 -8.9 15.9 61 -15.2 4.7
12:05 1024 30.24 853 25.19 -8.8 16.3 62 -14.8 5.3
12:10 1024 30.24 853 25.19 -8.6 16.6 61 -14.7 5.5
12:15 1024 30.24 853 25.19 -8.4 16.8 63 -14.4 6.1
12:20 1024 30.24 853 25.19 -8.2 17.3 59 -14.9 5.1
12:25 1024 30.24 853 25.19 -8.4 16.8 62 -14.4 6
12:30 1024 30.24 853 25.19 -7.9 17.8 61 -14.1 6.6
12:35 1023 30.21 853 25.19 -7.2 19 70 -11.7 10.9
12:40 1023 30.21 853 25.19 -7.3 18.9 66 -12.5 9.5
12:45 1023 30.21 853 25.19 -7.4 18.6 64 -13 8.6
12:50 1023 30.21 853 25.19 -7.8 18.1 63 -13.6 7.5
12:55 1023 30.21 852 25.16 -7.6 18.4 65 -13 8.7
13:00 1023 30.21 853 25.19 -6.7 19.9 61 -13 8.6
13:05 1023 30.21 853 25.19 -6.5 20.3 61 -12.8 9
13:10 1023 30.21 853 25.19 -7.1 19.3 64 -12.7 9.2
13:15 1023 30.21 852 25.16 -6.4 20.5 67 -11.6 11.1
13:20 1023 30.21 852 25.16 -5.9 21.3 63 -11.9 10.5
13:25 1023 30.21 852 25.16 -6.1 21 64 -11.9 10.7
13:30 1023 30.21 852 25.16 -6.7 19.9 64 -12.4 9.6
13:35 1023 30.21 852 25.16 -6.1 21 65 -11.7 11
13:40 1023 30.21 852 25.16 -7.2 19 69 -12 10.3
13:45 1023 30.21 852 25.16 -7.7 18.1 71 -12.2 10.1
13:50 1023 30.21 852 25.16 -7.1 19.1 69 -11.9 10.6
13:55 1023 30.21 852 25.16 -6.4 20.5 66 -11.8 10.8
14:00 1023 30.21 852 25.16 -6.3 20.7 64 -12 10.3
14:05 1023 30.21 852 25.16 -5.9 21.4 67 -11.2 11.9
14:10 1023 30.21 852 25.16 -6.7 19.9 68 -11.8 10.8
14:15 1023 30.21 852 25.16 -6.8 19.7 70 -11.4 11.4
14:20 1023 30.21 852 25.16 -6.1 21 66 -11.4 11.5
14:25 1023 30.21 852 25.16 -6.2 20.9 67 -11.3 11.6
14:30 1023 30.21 852 25.16 -6.8 19.8 70 -11.4 11.5
14:35 1023 30.21 852 25.16 -7.3 18.9 70 -11.8 10.8
14:40 1023 30.21 852 25.16 -7.2 19 68 -12.1 10.2
14:45 1023 30.21 852 25.16 -7.1 19.3 67 -12.2 10
14:50 1023 30.21 852 25.16 -6.3 20.7 63 -12.2 10.1
14:55 1022 30.18 852 25.16 -6.1 21 65 -11.6 11.1
15:00 1022 30.18 852 25.16 -5.4 22.2 61 -11.9 10.6
15:05 1022 30.18 852 25.16 -5.9 21.4 67 -11.1 12.1
15:10 1022 30.18 851 25.13 -5.3 22.4 56 -12.7 9.1
15:15 1022 30.18 851 25.13 -5.7 21.7 58 -12.8 8.9
15:20 1022 30.18 851 25.13 -5.2 22.6 56 -12.6 9.2
15:25 1022 30.18 851 25.13 -5.1 22.8 58 -12.1 10.2
15:30 1022 30.18 851 25.13 -5.4 22.3 57 -12.6 9.3
15:35 1022 30.18 851 25.13 -5.4 22.3 57 -12.6 9.4
15:40 1022 30.18 851 25.13 -4.8 23.3 55 -12.6 9.3
15:45 1022 30.18 851 25.13 -5.8 21.6 54 -13.7 7.4
15:50 1022 30.18 851 25.13 -6 21.2 59 -12.8 9
15:55 1022 30.18 851 25.13 -5.4 22.4 55 -13.1 8.4
16:00 1022 30.18 851 25.13 -5.9 21.4 57 -13.1 8.4
16:05 1022 30.18 851 25.13 -5.7 21.7 54 -13.6 7.6
16:10 1022 30.18 851 25.13 -5.6 21.9 54 -13.5 7.7
16:15 1022 30.18 851 25.13 -5.9 21.5 56 -13.3 8
16:20 1022 30.18 851 25.13 -6.1 20.9 57 -13.3 8.1
16:25 1022 30.18 851 25.13 -6.4 20.5 58 -13.4 7.8
16:30 1022 30.18 851 25.13 -6.6 20 59 -13.3 8
16:35 1022 30.18 851 25.13 -6.4 20.5 56 -13.7 7.3
16:40 1022 30.18 851 25.13 -6.3 20.6 57 -13.6 7.5
16:45 1022 30.18 851 25.13 -6.3 20.6 56 -13.7 7.4
16:50 1022 30.18 851 25.13 -6.4 20.5 58 -13.5 7.8
16:55 1022 30.18 851 25.13 -6.6 20.1 57 -13.8 7.2
17:00 1022 30.18 851 25.13 -6.9 19.6 58 -13.8 7.1
17:05 1022 30.18 851 25.13 -6.8 19.8 56 -14.1 6.6
17:10 1022 30.18 851 25.13 -7 19.4 58 -13.9 7
17:15 1022 30.18 851 25.13 -6.8 19.7 57 -13.9 7
17:20 1022 30.18 851 25.13 -6.7 20 58 -13.7 7.4
17:25 1022 30.18 851 25.13 -6.2 20.9 56 -13.6 7.5
17:30 1022 30.18 851 25.13 -6.4 20.4 56 -13.8 7.1
17:35 1022 30.18 851 25.13 -6.8 19.8 58 -13.7 7.3
17:40 1022 30.18 851 25.13 -7 19.4 58 -13.9 6.9
17:45 1022 30.18 851 25.13 -7 19.5 59 -13.8 7.2
17:50 1022 30.18 851 25.13 -7.1 19.3 59 -13.8 7.2
17:55 1022 30.18 851 25.13 -7 19.4 58 -14 6.7
18:00 1022 30.18 851 25.13 -6.9 19.7 57 -14 6.7
18:05 1022 30.18 851 25.13 -7.3 18.9 59 -14.1 6.7
18:10 1022 30.18 851 25.13 -7.2 19.1 57 -14.4 6.1
18:15 1022 30.18 851 25.13 -7.5 18.5 59 -14.2 6.4
18:20 1022 30.18 851 25.13 -7.6 18.4 59 -14.3 6.2
18:25 1022 30.18 851 25.13 -7.5 18.4 59 -14.3 6.3
18:30 1022 30.18 851 25.13 -7.7 18.1 58 -14.7 5.6
18:35 1021 30.15 851 25.13 -7.8 17.9 59 -14.6 5.8
18:40 1022 30.18 851 25.13 -8 17.6 59 -14.7 5.6
18:45 1021 30.15 851 25.13 -8.2 17.2 59 -14.8 5.4
18:50 1021 30.15 851 25.13 -8.4 17 61 -14.7 5.5
18:55 1021 30.15 851 25.13 -8.4 16.9 61 -14.7 5.6
19:00 1021 30.15 851 25.13 -8.5 16.7 61 -14.7 5.5
19:05 1021 30.15 851 25.13 -8.4 16.8 62 -14.4 6.1
19:10 1021 30.15 851 25.13 -8.3 17 62 -14.4 6.1
19:15 1021 30.15 851 25.13 -8.6 16.6 63 -14.4 6
19:20 1021 30.15 851 25.13 -8.6 16.6 62 -14.6 5.7
19:25 1021 30.15 851 25.13 -8.6 16.5 62 -14.5 5.8
19:30 1021 30.15 851 25.13 -8.7 16.3 62 -14.8 5.4
19:35 1021 30.15 851 25.13 -8.9 16.1 63 -14.7 5.6
19:40 1021 30.15 851 25.13 -8.8 16.2 62 -14.9 5.3
19:45 1021 30.15 851 25.13 -9 15.9 62 -15 5
19:50 1021 30.15 851 25.13 -9.1 15.7 62 -15 5
19:55 1021 30.15 851 25.13 -9.1 15.7 62 -15.1 4.8
20:00 1021 30.15 851 25.13 -9.2 15.5 62 -15.1 4.8
20:05 1021 30.15 851 25.13 -9.3 15.3 62 -15.2 4.7
20:10 1021 30.15 851 25.13 -9.3 15.2 62 -15.2 4.6
20:15 1021 30.15 851 25.13 -9.3 15.3 63 -15.2 4.6
20:20 1021 30.15 851 25.13 -9.3 15.3 62 -15.2 4.6
20:25 1021 30.15 851 25.13 -9.3 15.3 62 -15.3 4.5
20:30 1021 30.15 851 25.13 -9.3 15.3 63 -15.2 4.7
20:35 1022 30.18 851 25.13 -9.3 15.3 63 -15.2 4.7
20:40 1022 30.18 851 25.13 -9.3 15.2 63 -15.1 4.8
20:45 1022 30.18 851 25.13 -9.3 15.3 64 -14.8 5.4
20:50 1022 30.18 851 25.13 -9.2 15.4 65 -14.6 5.8
20:55 1022 30.18 851 25.13 -9.2 15.5 65 -14.6 5.7
21:00 1022 30.18 851 25.13 -9.2 15.4 65 -14.7 5.6
21:05 1022 30.18 851 25.13 -9.2 15.4 64 -14.8 5.3
21:10 1022 30.18 851 25.13 -9.2 15.4 65 -14.6 5.7
21:15 1022 30.18 851 25.13 -9.2 15.4 66 -14.5 5.9
21:20 1022 30.18 851 25.13 -9.2 15.4 66 -14.5 6
21:25 1022 30.18 851 25.13 -9.3 15.3 65 -14.7 5.6
21:30 1022 30.18 851 25.13 -9.2 15.4 65 -14.7 5.6
21:35 1022 30.18 851 25.13 -9.2 15.4 66 -14.5 6
21:40 1022 30.18 851 25.13 -9.2 15.4 66 -14.5 5.9
21:45 1022 30.18 851 25.13 -9.2 15.4 65 -14.6 5.7
21:50 1022 30.18 851 25.13 -9.2 15.5 65 -14.6 5.8
21:55 1021 30.15 851 25.13 -9.2 15.4 65 -14.6 5.7
22:00 1021 30.15 851 25.13 -9.3 15.3 66 -14.6 5.8
22:05 1021 30.15 851 25.13 -9.3 15.3 66 -14.6 5.7
22:10 1021 30.15 851 25.13 -9.3 15.2 66 -14.6 5.7
22:15 1021 30.15 850 25.1 -9.3 15.2 65 -14.7 5.6
22:20 1021 30.15 850 25.1 -9.4 15.1 66 -14.6 5.7
22:25 1021 30.15 851 25.13 -9.4 15.2 66 -14.6 5.7
22:30 1021 30.15 850 25.1 -9.4 15.1 65 -14.8 5.3
22:35 1021 30.15 850 25.1 -9.4 15 65 -14.8 5.4
22:40 1021 30.15 850 25.1 -9.5 15 65 -14.8 5.4
22:45 1021 30.15 850 25.1 -9.4 15.1 65 -14.8 5.3
22:50 1021 30.15 850 25.1 -9.4 15 66 -14.7 5.5
22:55 1021 30.15 850 25.1 -9.5 14.9 66 -14.7 5.5
23:00 1021 30.15 850 25.1 -9.5 14.9 66 -14.7 5.6
23:05 1021 30.15 850 25.1 -9.4 15 66 -14.7 5.6
23:10 1021 30.15 850 25.1 -9.4 15.1 66 -14.6 5.8
23:15 1021 30.15 850 25.1 -9.4 15.1 66 -14.6 5.7
23:20 1020 30.12 850 25.1 -9.4 15 66 -14.6 5.8
23:25 1020 30.12 850 25.1 -9.4 15 66 -14.6 5.7
23:30 1020 30.12 850 25.1 -9.5 15 67 -14.5 5.9
23:35 1020 30.12 850 25.1 -9.5 14.9 67 -14.5 5.8
23:40 1020 30.12 850 25.1 -9.5 14.8 67 -14.6 5.6
23:45 1020 30.12 849 25.07 -9.5 14.8 67 -14.7 5.6
23:50 1020 30.12 849 25.07 -9.6 14.8 67 -14.7 5.6
23:55 1020 30.12 849 25.07 -9.6 14.7 67 -14.6 5.7
24:00 1020 30.12 849 25.07 -9.6 14.7 67 -14.6 5.8